Time;durP1;ratioP1;P1;durP2;ratioP2;P2;SDS_P1;SDS_P2;PMS_P1;PMS_P2;Temp;Humidity;BMP_temperature;BMP_pressure;BME280_temperature;BME280_humidity;BME280_pressure;Samples;Min_cycle;Max_cycle;Signal;HPM_P1;HPM_P2
2023/07/03 00:00:28;;;;;;;16.98;5.10;;;;;;;15.10;66.97;100946.03;4987125;28;20418;-80
2023/07/03 00:02:53;;;;;;;15.93;4.97;;;;;;;15.08;67.24;100940.03;4991471;28;20109;-78
2023/07/03 00:05:20;;;;;;;14.48;5.40;;;;;;;15.08;67.32;100934.72;4991336;28;20042;-79
2023/07/03 00:07:46;;;;;;;17.83;4.63;;;;;;;15.09;67.46;100939.06;4976586;28;20113;-79
2023/07/03 00:10:12;;;;;;;17.63;5.57;;;;;;;15.08;67.68;100935.56;4980781;28;20408;-78
2023/07/03 00:12:38;;;;;;;15.25;5.25;;;;;;;15.05;67.66;100936.69;4972564;28;20116;-79
2023/07/03 00:15:05;;;;;;;15.43;4.63;;;;;;;15.05;67.77;100941.97;4971710;28;20034;-79
2023/07/03 00:17:30;;;;;;;16.95;5.38;;;;;;;15.07;67.84;100935.69;4982518;28;20033;-80
2023/07/03 00:19:56;;;;;;;18.48;5.03;;;;;;;15.05;68.05;100934.03;4990637;28;20038;-80
2023/07/03 00:22:21;;;;;;;15.70;4.88;;;;;;;15.05;68.15;100934.03;4970252;28;20026;-79
2023/07/03 00:24:46;;;;;;;14.80;4.85;;;;;;;15.01;68.41;100935.28;4965074;28;20031;-78
2023/07/03 00:27:12;;;;;;;16.58;5.07;;;;;;;15.04;68.62;100932.34;4980472;28;20023;-80
2023/07/03 00:29:37;;;;;;;17.65;4.68;;;;;;;15.03;68.70;100925.38;4986605;28;20034;-80
2023/07/03 00:32:06;;;;;;;16.75;4.85;;;;;;;15.00;68.87;100930.13;4991677;28;20482;-79
2023/07/03 00:34:31;;;;;;;22.63;5.28;;;;;;;15.02;68.91;100926.38;4991383;28;20129;-79
2023/07/03 00:36:58;;;;;;;26.95;5.75;;;;;;;15.01;69.22;100924.69;4976511;28;20357;-70
2023/07/03 00:39:23;;;;;;;19.23;5.50;;;;;;;15.01;69.46;100921.19;4976513;28;20038;-80
2023/07/03 00:41:49;;;;;;;23.38;6.03;;;;;;;15.01;69.35;100935.28;4970972;28;20031;-79
2023/07/03 00:44:17;;;;;;;21.52;4.97;;;;;;;14.98;69.61;100932.91;4970653;28;20073;-78
2023/07/03 00:46:45;;;;;;;21.80;5.30;;;;;;;14.98;69.68;100927.63;4971057;28;20049;-78
2023/07/03 00:49:11;;;;;;;19.17;5.43;;;;;;;14.93;69.75;100923.72;4956608;28;20121;-78
2023/07/03 00:51:40;;;;;;;17.13;5.70;;;;;;;14.94;69.70;100920.09;4984308;28;20027;-81
2023/07/03 00:54:06;;;;;;;21.67;6.18;;;;;;;14.93;70.00;100921.91;4972149;28;20035;-78
2023/07/03 00:56:32;;;;;;;18.48;4.85;;;;;;;14.94;70.31;100920.94;4966824;28;20034;-80
2023/07/03 00:58:57;;;;;;;21.63;5.75;;;;;;;14.93;70.35;100921.91;4951769;28;20041;-81
2023/07/03 01:01:29;;;;;;;23.20;5.53;;;;;;;14.95;70.39;100921.78;4951621;29;20031;-80
2023/07/03 01:04:08;;;;;;;17.90;5.63;;;;;;;14.93;70.07;100924.56;4964623;28;20046;-77
2023/07/03 01:06:51;;;;;;;22.08;5.25;;;;;;;14.92;70.48;100917.59;4951871;28;20043;-79
2023/07/03 01:09:20;;;;;;;22.60;5.47;;;;;;;14.91;71.44;100915.91;4981435;28;20105;-79
2023/07/03 01:11:47;;;;;;;17.15;5.45;;;;;;;14.89;71.14;100917.88;4971737;28;20031;-79
2023/07/03 01:14:17;;;;;;;24.95;5.97;;;;;;;14.83;71.43;100917.59;4969587;28;20027;-79
2023/07/03 01:16:43;;;;;;;22.02;5.55;;;;;;;14.82;71.71;100922.06;4969295;28;20019;-78
2023/07/03 01:19:14;;;;;;;23.88;6.32;;;;;;;14.79;71.76;100916.16;4974690;28;20040;-79
2023/07/03 01:21:49;;;;;;;19.92;5.35;;;;;;;14.78;72.15;100912.69;4984937;28;20447;-81
2023/07/03 01:24:31;;;;;;;20.23;6.15;;;;;;;14.75;72.51;100923.56;4970747;28;20037;-80
2023/07/03 01:27:01;;;;;;;21.30;5.70;;;;;;;14.71;73.06;100919.50;4987574;28;20040;-80
2023/07/03 01:29:28;;;;;;;20.92;5.90;;;;;;;14.71;73.13;100927.47;5005727;28;20053;-78
2023/07/03 01:31:56;;;;;;;23.60;6.53;;;;;;;14.70;73.57;100923.13;5004942;28;20026;-81
2023/07/03 01:34:22;;;;;;;18.73;5.53;;;;;;;14.65;73.80;100925.38;4981633;28;20057;-81
2023/07/03 01:36:49;;;;;;;19.15;5.88;;;;;;;14.62;74.15;100925.66;4955562;28;20031;-81
2023/07/03 01:39:15;;;;;;;20.50;5.50;;;;;;;14.60;74.62;100917.84;4951032;28;20089;-81
2023/07/03 01:41:41;;;;;;;25.40;6.40;;;;;;;14.56;74.67;100920.91;4969710;28;20484;-79
2023/07/03 01:44:06;;;;;;;18.80;4.95;;;;;;;14.57;74.92;100917.28;4987162;28;20081;-79
2023/07/03 01:46:32;;;;;;;24.88;5.97;;;;;;;14.56;74.94;100920.91;4989783;28;20022;-78
2023/07/03 01:48:57;;;;;;;24.65;6.70;;;;;;;14.54;75.32;100910.44;4981258;28;20046;-78
2023/07/03 01:51:35;;;;;;;21.50;5.75;;;;;;;14.52;75.49;100908.91;4969544;28;20109;-78
2023/07/03 01:54:11;;;;;;;20.35;5.80;;;;;;;14.48;75.72;100918.09;4967127;28;20153;-78
2023/07/03 01:56:43;;;;;;;22.83;6.30;;;;;;;14.45;76.19;100913.09;4972100;28;20094;-78
2023/07/03 01:59:12;;;;;;;23.95;6.03;;;;;;;14.40;76.57;100910.78;4983490;28;20376;-78
2023/07/03 02:01:50;;;;;;;22.75;6.03;;;;;;;14.40;76.72;100906.34;4968037;28;20023;-78
2023/07/03 02:04:37;;;;;;;18.92;5.47;;;;;;;14.38;76.75;100903.00;4981710;28;20031;-71
2023/07/03 02:07:05;;;;;;;24.63;6.28;;;;;;;14.33;77.47;100902.56;4985333;28;20084;-71
2023/07/03 02:09:32;;;;;;;20.25;5.63;;;;;;;14.30;77.79;100900.19;4988795;28;20556;-71
2023/07/03 02:11:57;;;;;;;23.90;6.55;;;;;;;14.32;77.90;100903.53;4970211;28;20081;-71
2023/07/03 02:14:24;;;;;;;26.65;7.03;;;;;;;14.27;78.21;100908.41;4973763;28;20048;-78
2023/07/03 02:16:52;;;;;;;33.65;6.47;;;;;;;14.25;78.79;100901.56;4977648;28;20038;-78
2023/07/03 02:19:19;;;;;;;25.98;6.15;;;;;;;14.23;79.14;100899.06;4979557;28;20038;-80
2023/07/03 02:21:46;;;;;;;22.63;6.07;;;;;;;14.18;79.49;100901.28;4972622;28;20023;-78
2023/07/03 02:24:12;;;;;;;22.48;6.22;;;;;;;14.16;80.09;100902.41;4985741;28;20018;-79
2023/07/03 02:26:38;;;;;;;26.45;6.50;;;;;;;14.10;80.86;100899.31;4986079;28;20034;-71
2023/07/03 02:29:05;;;;;;;26.00;6.70;;;;;;;14.09;80.93;100889.72;4988939;28;20045;-73
2023/07/03 02:31:30;;;;;;;24.05;6.50;;;;;;;14.07;81.29;100898.75;4989616;28;20130;-71
2023/07/03 02:33:55;;;;;;;29.02;6.78;;;;;;;14.05;81.58;100890.13;4989506;28;20469;-71
2023/07/03 02:36:25;;;;;;;27.58;6.88;;;;;;;13.99;82.42;100891.47;4980340;28;20034;-71
2023/07/03 02:38:51;;;;;;;26.20;7.35;;;;;;;13.95;82.91;100889.22;4974272;28;20610;-79
2023/07/03 02:41:16;;;;;;;28.45;7.25;;;;;;;13.90;84.17;100891.44;4976055;28;20117;-80
2023/07/03 02:43:42;;;;;;;31.00;6.53;;;;;;;13.93;83.95;100885.88;4978745;28;20033;-80
2023/07/03 02:46:10;;;;;;;24.52;6.35;;;;;;;13.89;83.94;100884.47;4976970;28;20482;-79
2023/07/03 02:48:36;;;;;;;28.45;7.47;;;;;;;13.86;84.28;100885.56;4974307;28;20039;-81
2023/07/03 02:51:01;;;;;;;29.80;7.30;;;;;;;13.82;85.33;100878.88;4979876;28;20124;-80
2023/07/03 02:53:27;;;;;;;29.73;7.75;;;;;;;13.78;85.19;100885.41;4979029;28;20023;-79
2023/07/03 02:55:55;;;;;;;26.00;6.88;;;;;;;13.82;85.27;100880.69;4970967;28;20490;-80
2023/07/03 02:58:21;;;;;;;31.30;7.40;;;;;;;13.76;nan;100877.63;4955924;28;20387;-80
2023/07/03 03:00:50;;;;;;;29.08;6.95;;;;;;;13.73;86.19;100884.97;4973008;28;20037;-80
2023/07/03 03:03:16;;;;;;;31.35;7.13;;;;;;;13.70;86.52;100888.72;4996172;28;20464;-80
2023/07/03 03:05:41;;;;;;;30.17;7.55;;;;;;;13.69;86.83;100884.41;4975719;28;20081;-80
2023/07/03 03:08:11;;;;;;;26.33;6.70;;;;;;;13.65;87.51;100882.16;4971799;28;20019;-80
2023/07/03 03:10:37;;;;;;;23.73;6.53;;;;;;;13.65;87.31;100887.47;4972689;28;20014;-80
2023/07/03 03:13:03;;;;;;;26.08;6.68;;;;;;;13.59;88.22;100878.22;4959631;28;20403;-80
2023/07/03 03:15:30;;;;;;;28.77;7.45;;;;;;;13.57;88.61;100882.81;4982738;28;20098;-80
2023/07/03 03:17:55;;;;;;;28.17;7.65;;;;;;;13.58;88.76;100876.53;4974559;28;20483;-80
2023/07/03 03:20:21;;;;;;;26.98;7.30;;;;;;;13.56;89.27;100881.13;4982012;28;20030;-73
2023/07/03 03:22:46;;;;;;;26.13;6.90;;;;;;;13.55;89.85;100876.81;4977230;28;20030;-79
2023/07/03 03:25:11;;;;;;;29.05;7.15;;;;;;;13.56;89.69;100869.72;4978311;28;20022;-79
2023/07/03 03:27:37;;;;;;;30.60;8.05;;;;;;;13.57;90.10;100866.09;4976320;28;20441;-81
2023/07/03 03:30:03;;;;;;;33.85;8.18;;;;;;;13.54;90.70;100869.84;4974681;28;20483;-73
2023/07/03 03:32:29;;;;;;;31.85;7.45;;;;;;;13.52;90.75;100877.06;4964592;28;20727;-73
2023/07/03 03:34:55;;;;;;;27.25;7.85;;;;;;;13.48;91.33;100871.22;4983937;28;20046;-80
2023/07/03 03:37:21;;;;;;;34.42;8.00;;;;;;;13.48;91.50;100876.50;4974694;28;20062;-80
2023/07/03 03:39:46;;;;;;;27.30;7.65;;;;;;;13.48;91.80;100875.66;4973556;28;20113;-73
2023/07/03 03:42:12;;;;;;;34.22;7.93;;;;;;;13.47;92.25;100876.63;4972604;28;20400;-73
2023/07/03 03:44:38;;;;;;;30.88;8.20;;;;;;;13.45;92.54;100870.66;4990350;28;20082;-73
2023/07/03 03:47:04;;;;;;;33.25;8.07;;;;;;;13.42;92.89;100877.03;4973886;28;20031;-80
2023/07/03 03:49:31;;;;;;;30.00;8.32;;;;;;;13.45;92.99;100870.66;4982892;28;20044;-80
2023/07/03 03:51:56;;;;;;;28.50;7.88;;;;;;;13.43;93.47;100875.22;4977746;28;20027;-80
2023/07/03 03:54:21;;;;;;;38.75;8.20;;;;;;;13.41;93.73;100877.16;4972169;28;20035;-80
2023/07/03 03:56:47;;;;;;;32.70;7.55;;;;;;;13.41;93.97;100877.16;4965059;28;20034;-81
2023/07/03 03:59:12;;;;;;;33.08;7.43;;;;;;;13.35;94.34;100875.06;4971885;28;20031;-81
2023/07/03 04:01:42;;;;;;;31.85;8.65;;;;;;;13.37;94.49;100886.31;4970977;28;20034;-80
2023/07/03 04:04:10;;;;;;;33.75;8.10;;;;;;;13.34;94.96;100890.06;4956158;28;20031;-80
2023/07/03 04:06:37;;;;;;;34.45;8.77;;;;;;;13.37;95.06;100881.03;4952536;28;20031;-80
2023/07/03 04:09:03;;;;;;;33.30;8.88;;;;;;;13.36;95.27;100876.72;4961813;28;20105;-80
2023/07/03 04:11:30;;;;;;;32.60;7.40;;;;;;;13.39;95.68;100879.09;4972024;28;20535;-80
2023/07/03 04:13:56;;;;;;;29.60;8.32;;;;;;;13.53;95.14;100878.75;4971193;28;20042;-80
2023/07/03 04:16:23;;;;;;;29.25;7.47;;;;;;;13.56;94.75;100877.66;4971580;28;20030;-80
2023/07/03 04:18:49;;;;;;;32.10;7.95;;;;;;;13.79;94.76;100879.16;4973609;28;20518;-80
2023/07/03 04:21:14;;;;;;;28.15;8.00;;;;;;;13.88;93.99;100881.00;4968936;28;20039;-80
2023/07/03 04:23:40;;;;;;;30.38;7.60;;;;;;;13.94;93.66;100879.63;4979890;28;20022;-79
2023/07/03 04:26:05;;;;;;;29.20;7.50;;;;;;;13.92;93.57;100884.19;4978706;28;20058;-73
2023/07/03 04:28:33;;;;;;;33.88;8.77;;;;;;;13.91;93.63;100878.06;4979757;28;20386;-80
2023/07/03 04:30:59;;;;;;;28.55;7.78;;;;;;;13.91;93.98;100874.59;4978427;28;20030;-80
2023/07/03 04:33:24;;;;;;;31.40;7.80;;;;;;;13.89;94.00;100876.53;4988259;28;20475;-79
2023/07/03 04:35:50;;;;;;;30.33;7.47;;;;;;;13.82;94.58;100878.88;4976481;28;20093;-80
2023/07/03 04:38:18;;;;;;;30.70;8.48;;;;;;;13.77;95.05;100870.53;4968556;28;20379;-80
2023/07/03 04:40:45;;;;;;;32.47;8.63;;;;;;;13.72;95.61;100881.50;4989465;28;20471;-80
2023/07/03 04:43:11;;;;;;;36.53;8.55;;;;;;;13.69;95.89;100889.69;4966474;28;20034;-79
2023/07/03 04:45:43;;;;;;;39.65;8.52;;;;;;;13.74;95.84;100892.78;4982960;28;20034;-80
2023/07/03 04:48:09;;;;;;;32.42;8.90;;;;;;;13.78;95.91;100885.41;4977684;28;20103;-73
2023/07/03 04:50:34;;;;;;;34.47;8.50;;;;;;;13.81;95.67;100893.09;4982715;28;20042;-80
2023/07/03 04:53:00;;;;;;;33.20;8.65;;;;;;;13.84;95.56;100890.16;4973449;28;20112;-80
2023/07/03 04:55:26;;;;;;;30.50;8.45;;;;;;;13.89;95.57;100893.25;4960586;28;20096;-79
2023/07/03 04:57:51;;;;;;;33.53;7.97;;;;;;;13.91;95.65;100890.47;4960204;28;20023;-80
2023/07/03 05:00:19;;;;;;;29.95;8.13;;;;;;;13.94;95.43;100898.97;4950977;29;20023;-78
2023/07/03 05:02:46;;;;;;;33.95;8.50;;;;;;;13.98;95.35;100899.53;4966591;28;20030;-79
2023/07/03 05:05:12;;;;;;;30.98;8.70;;;;;;;14.03;95.00;100892.06;4983788;28;20041;-78
2023/07/03 05:07:43;;;;;;;30.25;7.40;;;;;;;14.10;94.87;100895.84;4978688;28;20027;-78
2023/07/03 05:10:10;;;;;;;28.65;7.53;;;;;;;14.18;94.92;100900.44;4962183;28;20039;-78
2023/07/03 05:12:36;;;;;;;27.05;7.88;;;;;;;14.25;93.68;100905.06;4985549;28;20019;-80
2023/07/03 05:15:03;;;;;;;30.00;7.90;;;;;;;14.32;93.50;100914.13;4978141;28;20030;-79
2023/07/03 05:17:28;;;;;;;26.20;7.53;;;;;;;14.40;93.63;100911.63;4980431;28;20105;-78
2023/07/03 05:19:54;;;;;;;29.63;7.75;;;;;;;14.50;93.15;100910.88;4973889;28;20589;-72
2023/07/03 05:22:19;;;;;;;25.50;7.47;;;;;;;14.60;92.44;100911.72;4985462;28;20591;-80
2023/07/03 05:24:45;;;;;;;25.15;7.45;;;;;;;14.67;91.81;100915.47;4983035;28;20084;-78
2023/07/03 05:27:10;;;;;;;30.20;8.23;;;;;;;14.76;91.80;100919.94;4976133;28;20130;-78
2023/07/03 05:29:35;;;;;;;27.48;7.38;;;;;;;14.88;91.10;100920.66;4988177;28;20390;-79
2023/07/03 05:32:02;;;;;;;32.38;8.48;;;;;;;14.94;90.17;100920.94;4987390;28;20026;-79
2023/07/03 05:34:28;;;;;;;26.88;8.18;;;;;;;14.95;90.01;100922.59;4971482;28;20117;-78
2023/07/03 05:36:53;;;;;;;28.45;8.45;;;;;;;14.96;89.84;100918.97;4977181;28;20475;-78
2023/07/03 05:39:19;;;;;;;24.83;7.72;;;;;;;14.98;89.07;100922.31;4977306;28;20033;-80
2023/07/03 05:41:45;;;;;;;30.45;7.80;;;;;;;15.05;89.43;100926.09;4972743;28;20047;-80
2023/07/03 05:44:10;;;;;;;29.35;7.65;;;;;;;15.06;88.48;100921.63;4977213;28;20054;-81
2023/07/03 05:46:35;;;;;;;31.35;8.63;;;;;;;15.08;88.77;100932.91;4988816;28;20073;-80
2023/07/03 05:49:01;;;;;;;28.60;7.10;;;;;;;15.10;88.63;100930.13;4982794;28;20537;-73
2023/07/03 05:51:26;;;;;;;30.52;7.85;;;;;;;15.12;88.26;100930.81;4987446;28;20122;-80
2023/07/03 05:53:53;;;;;;;26.25;7.90;;;;;;;15.15;88.55;100933.19;4971985;28;20034;-80
2023/07/03 05:56:19;;;;;;;30.77;7.82;;;;;;;15.16;88.33;100924.25;4959895;28;20502;-73
2023/07/03 05:58:45;;;;;;;27.20;7.60;;;;;;;15.17;88.06;100928.56;4962553;28;20034;-80
2023/07/03 06:01:10;;;;;;;25.73;7.50;;;;;;;15.20;87.92;100936.25;4961005;28;20034;-74
2023/07/03 06:03:35;;;;;;;29.95;7.10;;;;;;;15.30;88.21;100934.44;4973894;28;20395;-73
2023/07/03 06:06:05;;;;;;;28.42;7.47;;;;;;;15.34;87.56;100938.47;4969815;28;20030;-72
2023/07/03 06:08:31;;;;;;;28.50;7.88;;;;;;;15.46;86.96;100937.34;4973798;28;20125;-79
2023/07/03 06:10:57;;;;;;;22.13;6.90;;;;;;;15.48;86.82;100935.38;4984979;28;20049;-79
2023/07/03 06:13:23;;;;;;;28.45;7.43;;;;;;;15.53;86.23;100927.81;4969384;28;20030;-78
2023/07/03 06:15:48;;;;;;;26.15;6.78;;;;;;;15.53;86.01;100938.44;4979492;28;20038;-79
2023/07/03 06:18:14;;;;;;;26.60;7.38;;;;;;;15.55;85.52;100936.47;4987633;28;20482;-71
2023/07/03 06:20:40;;;;;;;22.00;7.07;;;;;;;15.59;85.78;100929.09;4975105;28;20031;-72
2023/07/03 06:23:05;;;;;;;20.90;6.45;;;;;;;15.66;85.34;100928.41;4991506;28;20034;-72
2023/07/03 06:25:31;;;;;;;28.00;7.28;;;;;;;15.72;85.24;100934.09;4973531;28;20033;-78
2023/07/03 06:27:56;;;;;;;28.23;7.40;;;;;;;15.76;85.23;100943.44;4973113;28;20491;-79
2023/07/03 06:30:22;;;;;;;24.52;7.30;;;;;;;15.85;84.48;100942.56;4975172;28;20387;-78
2023/07/03 06:32:47;;;;;;;24.50;6.95;;;;;;;15.88;83.77;100931.66;4968542;28;20034;-79
2023/07/03 06:35:14;;;;;;;21.92;6.60;;;;;;;15.91;82.87;100931.38;4968700;28;20038;-79
2023/07/03 06:37:39;;;;;;;26.25;7.20;;;;;;;15.98;82.97;100935.09;4975636;28;20113;-79
2023/07/03 06:40:10;;;;;;;22.52;6.60;;;;;;;16.00;82.03;100941.09;4973456;28;20105;-79
2023/07/03 06:42:40;;;;;;;27.42;7.20;;;;;;;15.99;81.07;100939.44;4984850;28;20023;-78
2023/07/03 06:45:06;;;;;;;28.40;6.88;;;;;;;16.08;81.92;100927.94;4990017;28;20505;-79
2023/07/03 06:47:31;;;;;;;25.67;6.88;;;;;;;16.16;81.20;100924.56;4979337;28;20058;-79
2023/07/03 06:49:57;;;;;;;18.73;6.20;;;;;;;16.17;80.64;100916.44;4972623;28;20945;-73
2023/07/03 06:52:22;;;;;;;23.80;6.95;;;;;;;16.15;80.03;100918.41;4977468;28;20027;-74
2023/07/03 06:54:48;;;;;;;21.83;6.65;;;;;;;16.21;80.29;100917.81;4979357;28;20114;-74
2023/07/03 06:57:15;;;;;;;21.67;6.80;;;;;;;16.26;80.37;100918.22;4973426;28;20033;-74
2023/07/03 06:59:40;;;;;;;21.88;6.57;;;;;;;16.30;79.27;100922.22;4974979;28;20082;-74
2023/07/03 07:02:06;;;;;;;25.02;5.85;;;;;;;16.35;79.15;100923.59;4975239;28;20427;-74
2023/07/03 07:04:32;;;;;;;23.27;6.38;;;;;;;16.42;78.68;100933.50;4971835;28;20109;-75
2023/07/03 07:06:57;;;;;;;19.33;5.80;;;;;;;16.55;78.02;100943.75;4973433;28;20097;-74
2023/07/03 07:09:27;;;;;;;21.55;5.85;;;;;;;16.64;76.64;100950.00;4962912;28;20027;-74
2023/07/03 07:11:52;;;;;;;22.58;6.07;;;;;;;16.76;76.53;100944.34;4974442;28;20018;-76
2023/07/03 07:14:18;;;;;;;22.77;6.15;;;;;;;16.84;75.93;100940.94;4981225;28;20026;-79
2023/07/03 07:16:45;;;;;;;23.95;6.28;;;;;;;16.83;74.11;100940.09;4974902;28;20018;-72
2023/07/03 07:19:11;;;;;;;21.50;6.10;;;;;;;16.83;74.70;100934.78;4976100;28;20019;-79
2023/07/03 07:21:41;;;;;;;23.70;6.32;;;;;;;16.89;73.30;100952.78;4981468;28;20026;-79
2023/07/03 07:24:18;;;;;;;21.30;6.00;;;;;;;17.12;72.85;100945.16;4969097;28;20039;-79
2023/07/03 07:26:44;;;;;;;21.98;5.72;;;;;;;17.28;71.63;100941.81;4973470;28;20101;-80
2023/07/03 07:29:09;;;;;;;23.23;6.03;;;;;;;17.43;71.48;100945.59;4973740;28;20068;-79
2023/07/03 07:31:36;;;;;;;19.35;5.57;;;;;;;17.71;70.02;100950.81;4971826;28;20050;-72
2023/07/03 07:34:04;;;;;;;22.98;6.13;;;;;;;17.77;70.58;100935.03;4974346;28;20037;-79
2023/07/03 07:36:30;;;;;;;17.60;6.32;;;;;;;17.82;69.22;100939.88;4971295;28;20407;-80
2023/07/03 07:38:58;;;;;;;22.75;6.30;;;;;;;17.95;69.31;100942.94;4972212;28;20040;-79
2023/07/03 07:41:24;;;;;;;22.85;5.47;;;;;;;18.41;69.18;100951.44;4972998;28;20066;-78
2023/07/03 07:43:50;;;;;;;16.60;5.28;;;;;;;18.69;66.16;100946.72;4977532;28;20037;-79
2023/07/03 07:46:17;;;;;;;17.30;5.13;;;;;;;18.73;64.25;100943.56;4983901;28;20026;-72
2023/07/03 07:48:42;;;;;;;15.25;4.78;;;;;;;18.71;64.59;100961.56;4968742;28;20023;-71
2023/07/03 07:51:10;;;;;;;17.73;5.25;;;;;;;18.63;63.77;100953.53;4979542;28;20161;-72
2023/07/03 07:53:35;;;;;;;19.55;5.15;;;;;;;18.62;63.89;100951.03;4973160;28;20495;-80
2023/07/03 07:56:01;;;;;;;18.80;5.13;;;;;;;18.58;63.09;100953.19;4971758;28;20093;-79
2023/07/03 07:58:27;;;;;;;20.23;5.22;;;;;;;18.71;61.91;100955.41;4971001;28;20077;-78
2023/07/03 08:00:54;;;;;;;19.88;4.90;;;;;;;18.70;62.00;100965.22;4972797;28;20023;-76
2023/07/03 08:03:19;;;;;;;17.15;4.47;;;;;;;18.69;62.50;100968.06;4984929;28;20057;-76
2023/07/03 08:05:45;;;;;;;16.42;4.47;;;;;;;18.63;61.16;100963.38;4978666;28;20030;-74
2023/07/03 08:08:10;;;;;;;16.73;4.72;;;;;;;18.53;61.20;100971.50;4973809;28;20023;-77
2023/07/03 08:10:36;;;;;;;20.15;4.95;;;;;;;18.40;61.59;100973.75;4986948;28;20023;-77
2023/07/03 08:13:01;;;;;;;19.33;4.32;;;;;;;18.35;61.90;100976.06;4973823;28;20041;-77
2023/07/03 08:15:27;;;;;;;17.77;4.68;;;;;;;18.21;62.91;100974.84;4977680;28;20077;-77
2023/07/03 08:17:52;;;;;;;17.77;4.93;;;;;;;18.12;62.74;100981.97;4972017;28;20544;-78
2023/07/03 08:20:18;;;;;;;16.70;4.97;;;;;;;18.07;63.83;100975.47;4983797;28;20161;-78
2023/07/03 08:22:43;;;;;;;19.38;4.93;;;;;;;17.98;64.68;100977.22;4971766;28;20499;-73
2023/07/03 08:25:10;;;;;;;13.75;4.28;;;;;;;17.92;64.38;100987.66;4970689;28;20482;-71
2023/07/03 08:27:35;;;;;;;19.13;4.68;;;;;;;17.96;64.79;100981.03;4970073;28;20022;-71
2023/07/03 08:30:01;;;;;;;22.08;5.63;;;;;;;17.97;64.33;100988.03;4972410;28;20122;-71
2023/07/03 08:32:27;;;;;;;17.55;4.80;;;;;;;18.08;63.81;100985.97;4986179;28;20815;-71
2023/07/03 08:34:54;;;;;;;17.40;5.50;;;;;;;18.23;63.36;100996.84;4962785;28;20044;-71
2023/07/03 08:37:20;;;;;;;17.50;5.13;;;;;;;18.31;63.23;100990.72;4962459;28;20406;-72
2023/07/03 08:39:45;;;;;;;17.38;4.70;;;;;;;18.35;63.40;100992.06;4978880;28;20019;-76
2023/07/03 08:42:30;;;;;;;15.93;4.95;;;;;;;18.46;62.89;100995.28;4973218;28;20038;-77
2023/07/03 08:44:58;;;;;;;19.02;4.88;;;;;;;18.50;61.59;100989.63;4982415;28;20057;-76
2023/07/03 08:47:28;;;;;;;17.83;5.35;;;;;;;18.48;60.68;100995.13;4979320;28;20110;-79
2023/07/03 08:49:54;;;;;;;15.90;5.03;;;;;;;18.48;60.67;100992.47;4971053;28;20092;-76
2023/07/03 08:52:33;;;;;;;17.75;5.00;;;;;;;18.58;61.10;100982.50;4971629;28;20054;-73
2023/07/03 08:54:59;;;;;;;16.45;5.03;;;;;;;18.52;59.00;100979.66;4970321;28;20139;-71
2023/07/03 08:57:26;;;;;;;16.48;4.57;;;;;;;18.39;59.86;100988.06;4971928;28;20387;-73
2023/07/03 08:59:53;;;;;;;19.13;4.82;;;;;;;18.39;60.93;100991.56;4977756;28;20128;-73
2023/07/03 09:02:31;;;;;;;14.23;5.10;;;;;;;18.40;63.00;100989.75;4968811;28;20507;-73
2023/07/03 09:05:20;;;;;;;16.42;5.40;;;;;;;18.40;60.56;100995.06;4970861;28;20038;-73
2023/07/03 09:07:50;;;;;;;18.58;4.47;;;;;;;18.39;58.50;101002.22;4955962;28;20038;-73
2023/07/03 09:10:22;;;;;;;14.93;4.82;;;;;;;18.54;59.06;100997.13;4969174;28;20037;-73
2023/07/03 09:13:01;;;;;;;13.70;5.50;;;;;;;18.52;59.91;100990.31;4972034;28;20039;-78
2023/07/03 09:15:33;;;;;;;20.40;5.47;;;;;;;18.62;59.94;100997.19;4965920;28;20078;-70
2023/07/03 09:18:00;;;;;;;;;;;;;;;18.90;61.31;100987.09;4991028;28;20506;-76
2023/07/03 09:20:29;;;;;;;16.90;5.40;;;;;;;19.17;57.85;100988.63;4990292;28;19914;-73
2023/07/03 09:23:16;;;;;;;19.83;5.72;;;;;;;19.28;58.03;100985.66;4990082;28;20029;-76
2023/07/03 09:25:45;;;;;;;15.25;5.10;;;;;;;19.30;56.76;100983.63;4990256;28;20590;-77
2023/07/03 09:28:14;;;;;;;16.52;4.90;;;;;;;19.37;57.79;100984.63;4990830;28;20438;-71
2023/07/03 09:30:39;;;;;;;13.60;5.28;;;;;;;19.27;58.27;100983.16;4990157;28;20018;-76
2023/07/03 09:33:06;;;;;;;15.02;5.40;;;;;;;19.00;57.36;100989.63;4973745;28;20133;-76
2023/07/03 09:35:42;;;;;;;14.75;5.25;;;;;;;18.92;57.71;100995.78;4971460;28;20109;-70
2023/07/03 09:38:16;;;;;;;17.48;5.75;;;;;;;19.27;56.78;100996.50;4971250;28;20037;-76
2023/07/03 09:40:44;;;;;;;14.43;5.57;;;;;;;19.48;55.89;100986.13;4986592;28;20097;-71
2023/07/03 09:43:22;;;;;;;16.13;5.18;;;;;;;19.77;57.42;100996.31;4971847;28;20030;-70
2023/07/03 09:45:49;;;;;;;14.50;4.60;;;;;;;19.84;53.82;100994.63;4970513;28;20560;-72
2023/07/03 09:48:23;;;;;;;19.02;5.38;;;;;;;19.94;54.46;100997.94;4966903;28;20035;-77
2023/07/03 09:50:49;;;;;;;15.70;5.32;;;;;;;20.19;52.31;100984.50;4969419;28;20046;-76
2023/07/03 09:53:21;;;;;;;18.30;5.50;;;;;;;20.49;49.57;100996.28;4970275;28;20497;-71
2023/07/03 09:55:55;;;;;;;17.63;5.30;;;;;;;20.43;51.06;100987.13;4966756;28;20736;-74
2023/07/03 09:58:25;;;;;;;13.30;4.95;;;;;;;20.44;51.37;100993.31;4967123;28;20022;-72
2023/07/03 10:00:54;;;;;;;14.50;5.03;;;;;;;20.60;50.39;100988.72;4970535;28;20435;-78
2023/07/03 10:03:34;;;;;;;16.85;5.20;;;;;;;20.75;51.00;100982.59;4969920;28;20022;-77
2023/07/03 10:06:12;;;;;;;13.63;4.85;;;;;;;20.75;50.71;100975.41;4967902;28;20018;-76
2023/07/03 10:08:41;;;;;;;13.18;5.25;;;;;;;20.95;48.89;100992.69;4967858;28;20020;-76
2023/07/03 10:11:06;;;;;;;11.70;4.43;;;;;;;21.01;47.47;100984.94;4971225;28;20022;-71
2023/07/03 10:13:44;;;;;;;13.70;4.40;;;;;;;21.33;48.75;100984.75;4969261;28;20065;-76
2023/07/03 10:16:13;;;;;;;14.60;4.55;;;;;;;21.62;47.40;100983.16;4964063;28;20094;-71
2023/07/03 10:18:44;;;;;;;17.75;4.97;;;;;;;21.97;45.76;100992.31;4951614;28;20023;-76
2023/07/03 10:21:12;;;;;;;13.98;4.40;;;;;;;21.62;44.94;100996.56;4950548;28;20110;-76
2023/07/03 10:23:41;;;;;;;12.77;4.68;;;;;;;21.21;45.28;101003.06;4949926;28;20494;-72
2023/07/03 10:26:23;;;;;;;11.60;4.30;;;;;;;20.96;45.62;100998.88;4950529;28;20027;-76
2023/07/03 10:28:56;;;;;;;9.43;3.88;;;;;;;20.72;46.31;101007.03;4952318;28;20028;-76
2023/07/03 10:31:38;;;;;;;11.40;4.38;;;;;;;20.39;47.26;101007.13;4968845;28;20026;-77
2023/07/03 10:34:10;;;;;;;16.58;4.13;;;;;;;20.46;47.45;101013.50;4983688;28;20022;-78
2023/07/03 10:36:44;;;;;;;14.50;4.03;;;;;;;20.79;46.22;101007.97;4972306;28;20050;-71
2023/07/03 10:39:16;;;;;;;13.52;4.05;;;;;;;20.77;46.74;101010.00;4998083;28;20030;-71
2023/07/03 10:41:47;;;;;;;14.27;4.25;;;;;;;20.57;46.20;101015.78;4987659;28;20030;-71
2023/07/03 10:44:18;;;;;;;13.07;4.20;;;;;;;20.41;47.43;101015.84;4976124;28;20093;-77
2023/07/03 10:46:51;;;;;;;11.15;3.88;;;;;;;20.24;46.70;101024.91;4970163;28;20698;-73
2023/07/03 10:49:25;;;;;;;11.98;3.78;;;;;;;20.23;47.02;101020.56;4957728;28;20381;-72
2023/07/03 10:51:55;;;;;;;11.52;3.67;;;;;;;20.24;47.90;101015.06;4950613;28;20031;-77
2023/07/03 10:54:29;;;;;;;14.13;3.55;;;;;;;20.26;47.07;101020.22;4958888;28;20870;-77
2023/07/03 10:56:59;;;;;;;10.15;3.17;;;;;;;20.36;45.52;101012.84;4979335;28;20117;-77
2023/07/03 10:59:33;;;;;;;11.25;2.90;;;;;;;20.79;45.87;101010.66;4988231;28;20026;-72
2023/07/03 11:02:10;;;;;;;10.73;3.03;;;;;;;21.21;45.03;101010.22;4977694;28;20037;-73
2023/07/03 11:05:12;;;;;;;10.77;3.10;;;;;;;21.59;46.42;101001.22;4975334;28;20093;-72
2023/07/03 11:07:53;;;;;;;9.27;3.28;;;;;;;21.80;42.56;100992.50;4968267;28;20038;-72
2023/07/03 11:10:33;;;;;;;13.52;3.92;;;;;;;21.97;42.61;100992.31;4985312;28;20030;-78
2023/07/03 11:13:11;;;;;;;12.95;3.35;;;;;;;22.28;42.25;101006.41;4983628;28;20062;-78
2023/07/03 11:16:11;;;;;;;11.45;3.03;;;;;;;22.37;43.17;101010.66;4988425;28;20037;-72
2023/07/03 11:18:58;;;;;;;12.98;3.15;;;;;;;22.09;41.00;101015.03;4954323;28;20038;-78
2023/07/03 11:21:39;;;;;;;12.02;2.80;;;;;;;21.90;41.68;101013.66;4968266;28;20031;-71